createdAt,value
2022-08-07T00:01:00.090Z,19.23
2022-08-07T00:04:15.575Z,20.13
2022-08-07T00:07:18.901Z,19.95
2022-08-07T00:10:26.341Z,21.38
2022-08-07T00:13:29.409Z,21.00
2022-08-07T00:16:31.562Z,19.35
2022-08-07T00:20:00.463Z,19.27
2022-08-07T00:22:56.164Z,16.50
2022-08-07T00:26:06.905Z,16.42
2022-08-07T00:29:25.905Z,16.58
2022-08-07T00:32:36.960Z,19.83
2022-08-07T00:35:40.265Z,17.05
2022-08-07T00:38:42.260Z,17.00
2022-08-07T00:42:01.728Z,17.23
2022-08-07T00:45:07.779Z,16.02
2022-08-07T00:48:18.459Z,16.85
2022-08-07T00:51:20.823Z,15.65
2022-08-07T00:54:23.231Z,18.02
2022-08-07T00:57:27.674Z,16.77
2022-08-07T01:00:36.158Z,16.27
2022-08-07T01:03:56.904Z,16.55
2022-08-07T01:07:00.376Z,16.80
2022-08-07T01:10:06.925Z,16.20
2022-08-07T01:13:13.003Z,17.05
2022-08-07T01:16:30.493Z,16.35
2022-08-07T01:19:33.969Z,17.08
2022-08-07T01:22:58.435Z,18.95
2022-08-07T01:26:04.632Z,17.92
2022-08-07T01:29:06.839Z,17.40
2022-08-07T01:32:12.467Z,19.50
2022-08-07T01:35:17.310Z,17.45
2022-08-07T01:38:25.110Z,17.73
2022-08-07T01:41:28.095Z,18.77
2022-08-07T01:44:30.284Z,18.75
2022-08-07T01:48:18.364Z,19.80
2022-08-07T01:51:24.700Z,26.30
2022-08-07T01:54:32.864Z,23.85
2022-08-07T01:58:05.883Z,21.80
2022-08-07T02:01:25.502Z,20.63
2022-08-07T02:04:39.144Z,19.15
2022-08-07T02:08:01.272Z,18.00
2022-08-07T02:11:04.728Z,17.30
2022-08-07T02:14:09.211Z,17.45
2022-08-07T02:20:28.262Z,17.60
2022-08-07T02:23:35.797Z,17.98
2022-08-07T02:26:39.769Z,16.92
2022-08-07T02:29:43.479Z,16.88
2022-08-07T02:33:03.736Z,17.45
2022-08-07T02:36:28.480Z,17.80
2022-08-07T02:39:43.086Z,18.17
2022-08-07T02:42:47.086Z,18.58
2022-08-07T02:45:57.436Z,18.17
2022-08-07T02:48:59.951Z,16.88
2022-08-07T02:52:08.870Z,17.48
2022-08-07T02:55:28.784Z,16.25
2022-08-07T02:58:48.333Z,17.83
2022-08-07T03:01:52.265Z,15.05
2022-08-07T03:05:00.052Z,16.95
2022-08-07T03:08:10.255Z,15.68
2022-08-07T03:11:13.334Z,17.35
2022-08-07T03:14:15.865Z,16.25
2022-08-07T03:17:17.943Z,17.05
2022-08-07T03:20:20.243Z,17.08
2022-08-07T03:23:34.144Z,17.60
2022-08-07T03:26:58.492Z,16.98
2022-08-07T03:30:03.797Z,16.35
2022-08-07T03:33:08.660Z,15.93
2022-08-07T03:36:14.761Z,17.35
2022-08-07T03:39:59.316Z,17.38
2022-08-07T03:42:42.432Z,15.65
2022-08-07T03:45:47.862Z,16.17
2022-08-07T03:49:02.441Z,15.07
2022-08-07T03:52:06.401Z,16.52
2022-08-07T03:55:08.851Z,15.85
2022-08-07T03:59:06.775Z,15.03
2022-08-07T04:04:41.784Z,23.60
2022-08-07T04:07:48.542Z,14.75
2022-08-07T04:10:54.001Z,15.32
2022-08-07T04:14:09.873Z,14.70
2022-08-07T04:18:32.000Z,13.75
2022-08-07T04:20:54.769Z,14.82
2022-08-07T04:24:03.467Z,15.25
2022-08-07T04:27:20.509Z,15.07
2022-08-07T04:30:35.863Z,13.63
2022-08-07T04:33:46.640Z,13.68
2022-08-07T04:36:56.862Z,12.90
2022-08-07T04:39:59.038Z,16.00
2022-08-07T04:43:03.590Z,13.65
2022-08-07T04:46:25.688Z,12.80
2022-08-07T04:50:04.240Z,12.60
2022-08-07T04:53:27.768Z,16.35
2022-08-07T04:58:27.297Z,14.27
2022-08-07T05:01:00.128Z,13.75
2022-08-07T05:04:17.127Z,14.50
2022-08-07T05:07:48.195Z,11.18
2022-08-07T05:11:09.699Z,13.68
2022-08-07T05:14:52.111Z,11.45
2022-08-07T05:18:08.700Z,12.20
2022-08-07T05:21:14.561Z,10.85
2022-08-07T05:24:18.336Z,12.18
2022-08-07T05:28:02.835Z,12.40
2022-08-07T05:34:04.824Z,10.65
2022-08-07T05:37:14.701Z,11.52
2022-08-07T05:40:28.802Z,11.95
2022-08-07T05:43:49.980Z,10.55
2022-08-07T05:46:52.977Z,12.35
2022-08-07T05:49:55.929Z,15.02
2022-08-07T05:52:58.040Z,10.85
2022-08-07T05:56:05.596Z,15.93
2022-08-07T05:59:13.932Z,15.95
2022-08-07T06:02:28.779Z,14.30
2022-08-07T06:05:32.007Z,15.18
2022-08-07T06:08:37.893Z,12.52
2022-08-07T06:11:45.377Z,13.00
2022-08-07T06:14:49.858Z,15.52
2022-08-07T06:17:55.112Z,13.45
2022-08-07T06:22:11.777Z,12.25
2022-08-07T06:24:45.839Z,18.27
2022-08-07T06:28:01.211Z,12.65
2022-08-07T06:31:03.868Z,16.23
2022-08-07T06:34:07.739Z,12.35
2022-08-07T06:37:11.353Z,10.88
2022-08-07T06:40:20.898Z,9.57
2022-08-07T06:43:26.729Z,13.00
2022-08-07T06:46:31.397Z,9.13
2022-08-07T06:49:37.896Z,10.85
2022-08-07T06:52:55.754Z,7.40
2022-08-07T06:56:01.591Z,8.15
2022-08-07T07:00:15.095Z,7.38
2022-08-07T07:02:53.725Z,9.75
2022-08-07T07:06:02.995Z,11.23
2022-08-07T07:09:21.109Z,11.33
2022-08-07T07:12:48.729Z,9.80
2022-08-07T07:16:00.360Z,6.63
2022-08-07T07:19:55.501Z,7.95
2022-08-07T07:22:36.639Z,6.85
2022-08-07T07:26:35.156Z,6.93
2022-08-07T07:29:39.181Z,12.32
2022-08-07T07:32:45.211Z,5.80
2022-08-07T07:36:04.706Z,9.77
2022-08-07T07:39:09.177Z,8.30
2022-08-07T07:42:13.962Z,4.60
2022-08-07T07:46:35.626Z,4.68
2022-08-07T07:48:48.381Z,9.20
2022-08-07T07:51:57.857Z,10.93
2022-08-07T07:55:03.317Z,7.00
2022-08-07T07:58:06.072Z,9.70
2022-08-07T08:02:02.338Z,6.15
2022-08-07T08:04:33.835Z,5.47
2022-08-07T08:07:51.437Z,8.45
2022-08-07T08:11:00.980Z,3.58
2022-08-07T08:14:03.043Z,9.25
2022-08-07T08:17:32.400Z,3.00
2022-08-07T08:20:32.521Z,4.25
2022-08-07T08:23:54.373Z,3.80
2022-08-07T08:27:09.504Z,8.65
2022-08-07T08:30:17.318Z,11.98
2022-08-07T08:33:24.575Z,7.68
2022-08-07T08:36:34.470Z,5.00
2022-08-07T08:39:39.717Z,5.93
2022-08-07T08:43:00.094Z,6.78
2022-08-07T08:46:25.386Z,7.38
2022-08-07T08:50:04.551Z,5.28
2022-08-07T08:53:22.587Z,5.90
2022-08-07T08:56:33.083Z,4.75
2022-08-07T08:59:53.871Z,5.03
2022-08-07T09:03:23.434Z,3.92
2022-08-07T09:07:11.368Z,5.22
2022-08-07T09:10:50.544Z,8.30
2022-08-07T09:13:52.509Z,2.65
2022-08-07T09:17:16.485Z,9.02
2022-08-07T09:20:43.192Z,4.90
2022-08-07T09:24:54.054Z,6.60
2022-08-07T09:28:00.199Z,4.80
2022-08-07T09:31:15.543Z,3.92
2022-08-07T09:34:26.292Z,3.92
2022-08-07T09:37:53.850Z,6.20
2022-08-07T09:41:17.794Z,3.95
2022-08-07T09:44:52.039Z,4.15
2022-08-07T09:48:22.313Z,6.13
2022-08-07T09:52:15.532Z,4.75
2022-08-07T09:56:03.091Z,7.65
2022-08-07T09:59:46.179Z,5.03
2022-08-07T10:04:05.778Z,2.17
2022-08-07T10:07:03.003Z,5.40
2022-08-07T10:10:28.532Z,4.28
2022-08-07T10:14:01.668Z,3.33
2022-08-07T10:17:23.968Z,1.92
2022-08-07T10:24:27.313Z,12.77
2022-08-07T10:28:03.367Z,6.00
2022-08-07T10:31:39.375Z,5.53
2022-08-07T10:35:20.243Z,8.13
2022-08-07T10:39:09.792Z,5.47
2022-08-07T10:42:36.658Z,6.65
2022-08-07T10:45:44.888Z,5.30
2022-08-07T10:49:49.458Z,3.83
2022-08-07T10:52:56.074Z,6.22
2022-08-07T10:56:19.706Z,6.20
2022-08-07T10:59:49.477Z,6.40
2022-08-07T11:03:01.033Z,8.23
2022-08-07T11:06:18.518Z,5.95
2022-08-07T11:10:07.590Z,5.20
2022-08-07T11:14:41.849Z,1.83
2022-08-07T11:17:45.441Z,3.38
2022-08-07T11:21:02.092Z,7.57
2022-08-07T11:24:08.528Z,6.93
2022-08-07T11:27:20.654Z,4.15
2022-08-07T11:31:01.524Z,3.03
2022-08-07T11:34:24.664Z,4.40
2022-08-07T11:38:12.907Z,4.70
2022-08-07T11:42:02.224Z,5.15
2022-08-07T11:45:06.651Z,4.22
2022-08-07T11:48:42.379Z,8.07
2022-08-07T11:52:29.014Z,2.60
2022-08-07T11:56:25.335Z,10.73
2022-08-07T11:59:22.230Z,8.32
2022-08-07T12:02:53.804Z,5.38
2022-08-07T12:06:37.904Z,9.63
2022-08-07T12:10:17.869Z,8.07
2022-08-07T12:13:57.929Z,6.05
2022-08-07T12:17:19.911Z,4.00
2022-08-07T12:20:59.935Z,3.50
2022-08-07T12:24:37.411Z,4.75
2022-08-07T12:28:09.502Z,6.25
2022-08-07T12:31:22.369Z,2.53
2022-08-07T12:34:29.219Z,3.08
2022-08-07T12:38:09.098Z,4.75
2022-08-07T12:40:57.604Z,6.95
2022-08-07T12:44:03.965Z,4.45
2022-08-07T12:47:33.228Z,3.67
2022-08-07T12:50:54.368Z,2.67
2022-08-07T12:54:37.458Z,5.80
2022-08-07T12:57:38.890Z,7.38
2022-08-07T13:01:07.649Z,3.35
2022-08-07T13:04:32.608Z,4.00
2022-08-07T13:08:12.884Z,3.70
2022-08-07T13:12:10.271Z,5.40
2022-08-07T13:15:23.804Z,6.72
2022-08-07T13:19:18.415Z,2.88
2022-08-07T13:22:32.405Z,2.28
2022-08-07T13:25:44.307Z,6.55
2022-08-07T13:43:28.272Z,6.22
2022-08-07T13:46:49.398Z,4.22
2022-08-07T13:50:34.578Z,4.22
2022-08-07T13:53:23.944Z,7.18
2022-08-07T13:56:35.419Z,3.85
2022-08-07T14:15:31.836Z,7.70
2022-08-07T14:18:49.852Z,4.10
2022-08-07T14:22:03.543Z,3.40
2022-08-07T14:25:15.621Z,5.53
2022-08-07T14:28:19.220Z,2.75
2022-08-07T14:31:25.272Z,7.88
2022-08-07T14:34:47.221Z,5.57
2022-08-07T14:38:05.698Z,7.00
2022-08-07T14:41:14.918Z,5.97
2022-08-07T14:44:19.077Z,4.97
2022-08-07T14:47:23.445Z,5.07
2022-08-07T14:57:19.250Z,7.60
2022-08-07T15:00:29.783Z,8.15
2022-08-07T15:03:52.192Z,9.05
2022-08-07T15:06:55.581Z,6.05
2022-08-07T15:10:04.710Z,3.17
2022-08-07T15:13:17.976Z,4.97
2022-08-07T15:20:30.654Z,7.35
2022-08-07T15:25:02.815Z,4.07
2022-08-07T15:27:24.078Z,5.18
2022-08-07T15:30:28.624Z,4.55
2022-08-07T15:40:34.210Z,5.85
2022-08-07T15:47:08.690Z,7.00
2022-08-07T15:53:51.910Z,5.32
2022-08-07T15:56:59.795Z,8.15
2022-08-07T16:00:06.394Z,4.10
2022-08-07T16:03:21.940Z,9.52
2022-08-07T16:06:52.855Z,8.63
2022-08-07T16:10:15.569Z,7.32
2022-08-07T16:13:58.983Z,7.75
2022-08-07T16:18:02.588Z,7.38
2022-08-07T16:22:01.242Z,3.92
2022-08-07T16:24:52.644Z,6.20
2022-08-07T16:30:07.299Z,4.47
2022-08-07T16:31:50.422Z,9.85
2022-08-07T16:35:59.368Z,10.52
2022-08-07T16:39:01.048Z,7.28
2022-08-07T16:42:06.866Z,8.05
2022-08-07T16:46:21.348Z,5.57
2022-08-07T16:50:28.788Z,15.43
2022-08-07T16:53:55.522Z,8.73
2022-08-07T16:56:49.223Z,9.10
2022-08-07T17:00:29.784Z,9.50
2022-08-07T17:04:03.613Z,14.35
2022-08-07T17:07:09.669Z,9.57
2022-08-07T17:10:54.617Z,11.98
2022-08-07T17:14:18.228Z,13.30
2022-08-07T17:17:47.342Z,12.65
2022-08-07T17:20:54.778Z,10.63
2022-08-07T17:24:28.352Z,10.95
2022-08-07T17:27:36.527Z,7.47
2022-08-07T17:30:58.371Z,6.55
2022-08-07T17:34:33.233Z,6.23
2022-08-07T17:38:32.144Z,5.90
2022-08-07T17:42:05.007Z,9.10
2022-08-07T17:45:23.582Z,7.32
2022-08-07T17:48:31.897Z,7.45
2022-08-07T17:51:49.571Z,12.15
2022-08-07T17:55:59.941Z,6.70
2022-08-07T17:58:56.846Z,12.63
2022-08-07T18:02:17.248Z,10.68
2022-08-07T18:06:02.173Z,13.23
2022-08-07T18:09:16.128Z,8.32
2022-08-07T18:12:28.601Z,4.95
2022-08-07T18:15:57.839Z,7.95
2022-08-07T18:21:12.715Z,5.88
2022-08-07T18:22:55.166Z,6.85
2022-08-07T18:26:03.382Z,6.72
2022-08-07T18:30:05.226Z,11.13
2022-08-07T18:33:12.093Z,6.38
2022-08-07T18:36:38.550Z,5.50
2022-08-07T18:40:08.864Z,6.88
2022-08-07T18:43:37.104Z,6.85
2022-08-07T18:46:59.990Z,7.13
2022-08-07T18:50:39.182Z,5.65
2022-08-07T18:54:27.978Z,4.75
2022-08-07T18:58:11.845Z,9.23
2022-08-07T19:02:19.456Z,5.95
2022-08-07T19:05:22.813Z,5.88
2022-08-07T19:08:49.515Z,6.10
2022-08-07T19:12:15.604Z,11.20
2022-08-07T19:16:02.739Z,7.18
2022-08-07T19:18:52.026Z,10.50
2022-08-07T19:22:11.221Z,12.50
2022-08-07T19:26:24.643Z,12.32
2022-08-07T19:30:56.436Z,7.25
2022-08-07T19:32:17.370Z,11.10
2022-08-07T19:35:33.560Z,7.45
2022-08-07T19:38:52.461Z,7.80
2022-08-07T19:42:05.816Z,6.80
2022-08-07T19:46:05.976Z,11.18
2022-08-07T19:48:43.948Z,10.27
2022-08-07T19:51:52.477Z,8.25
2022-08-07T19:54:58.175Z,9.18
2022-08-07T19:58:13.573Z,9.18
2022-08-07T20:01:18.411Z,8.38
2022-08-07T20:04:37.420Z,13.13
2022-08-07T20:07:48.192Z,9.35
2022-08-07T20:11:01.842Z,8.73
2022-08-07T20:14:07.286Z,8.98
2022-08-07T20:17:19.226Z,7.70
2022-08-07T20:20:29.675Z,9.50
2022-08-07T20:23:40.854Z,12.32
2022-08-07T20:26:52.208Z,6.95
2022-08-07T20:30:00.341Z,9.18
2022-08-07T20:33:08.957Z,8.75
2022-08-07T20:36:30.057Z,11.43
2022-08-07T20:40:03.704Z,10.23
2022-08-07T20:43:00.408Z,12.23
2022-08-07T20:46:28.721Z,7.25
2022-08-07T20:49:59.944Z,7.50
2022-08-07T20:52:52.783Z,6.55
2022-08-07T20:56:00.004Z,7.90
2022-08-07T20:59:05.239Z,11.10
2022-08-07T21:02:38.274Z,9.05
2022-08-07T21:05:54.501Z,8.65
2022-08-07T21:09:14.185Z,6.60
2022-08-07T21:12:26.120Z,7.13
2022-08-07T21:15:47.309Z,7.05
2022-08-07T21:18:53.386Z,7.85
2022-08-07T21:21:57.738Z,9.63
2022-08-07T21:25:12.326Z,7.22
2022-08-07T21:28:48.624Z,8.52
2022-08-07T21:32:46.771Z,10.60
2022-08-07T21:36:06.303Z,8.65
2022-08-07T21:39:58.244Z,7.97
2022-08-07T21:43:05.573Z,10.13
2022-08-07T21:46:24.980Z,7.13
2022-08-07T21:50:03.253Z,6.55
2022-08-07T21:53:53.035Z,6.22
2022-08-07T21:57:31.583Z,9.38
2022-08-07T22:00:39.965Z,7.85
2022-08-07T22:04:00.737Z,9.80
2022-08-07T22:07:31.462Z,7.55
2022-08-07T22:10:42.514Z,9.60
2022-08-07T22:13:55.206Z,9.35
2022-08-07T22:17:00.774Z,10.25
2022-08-07T22:20:34.418Z,12.82
2022-08-07T22:24:00.614Z,10.00
2022-08-07T22:27:17.399Z,9.75
2022-08-07T22:30:21.814Z,11.15
2022-08-07T22:33:52.549Z,13.38
2022-08-07T22:36:58.623Z,9.00
2022-08-07T22:40:29.811Z,9.70
2022-08-07T22:44:06.186Z,7.20
2022-08-07T22:47:44.788Z,7.90
2022-08-07T22:51:31.877Z,9.18
2022-08-07T22:54:41.718Z,9.90
2022-08-07T22:58:18.115Z,9.20
2022-08-07T23:01:50.721Z,9.32
2022-08-07T23:06:08.454Z,10.57
2022-08-07T23:10:04.435Z,12.32
2022-08-07T23:12:39.968Z,10.88
2022-08-07T23:16:48.540Z,10.45
2022-08-07T23:19:57.920Z,9.10
2022-08-07T23:24:05.680Z,9.02
2022-08-07T23:27:37.063Z,9.85
2022-08-07T23:32:50.140Z,14.73
2022-08-07T23:34:44.643Z,9.63
2022-08-07T23:38:05.929Z,10.20
2022-08-07T23:41:47.770Z,11.38
2022-08-07T23:46:02.259Z,14.48
2022-08-07T23:48:40.979Z,11.13
2022-08-07T23:53:00.393Z,12.63
2022-08-07T23:55:52.962Z,11.40
2022-08-07T23:59:10.819Z,12.80
